METAR Data
IDs: Format: Raw Decoded Include TAF

Data at: 0506 UTC 26 Sep 2018

KEWK 260456Z AUTO 01007KT 10SM CLR 12/08 A3021 RMK AO2 SLP222 T01170083 402390117
KEWK 260356Z AUTO 01011KT 10SM CLR 13/09 A3020 RMK AO2 SLP217 T01330089
KEWK 260256Z AUTO 36012KT 10SM CLR 14/09 A3017 RMK AO2 SLP209 T01390094 51030
KEWK 260156Z AUTO 36011KT 10SM CLR 15/10 A3014 RMK AO2 SLP199 T01500100
KEWK 260056Z AUTO 35011KT 10SM CLR 16/11 A3011 RMK AO2 SLP189 T01560106
KEWK 252356Z AUTO 35017G23KT 10SM CLR 17/11 A3008 RMK AO2 SLP177 T01670111 10211 20167 51021
KEWK 252256Z AUTO 36014KT 10SM CLR 18/12 A3006 RMK AO2 PK WND 35028/2158 SLP170 T01780117
KEWK 252156Z AUTO 36020G28KT 10SM FEW049 19/12 A3004 RMK AO2 PK WND 01030/2104 SLP164 T01890117
KEWK 252056Z AUTO 35022G27KT 10SM FEW045 SCT050 19/13 A3002 RMK AO2 PK WND 35027/2056 SLP155 T01890133 51017
KEWK 252023Z AUTO 36019G24KT 10SM SCT018 OVC038 18/13 A3001 RMK AO2 PK WND 35026/2012
KEWK 251956Z AUTO 34018G23KT 10SM SCT018 BKN026 OVC055 19/14 A3000 RMK AO2 PK WND 34027/1907 SLP149 T01940144
KEWK 251912Z AUTO 36016G27KT 10SM OVC016 18/14 A2999 RMK AO2 PK WND 34027/1907
KEWK 251856Z AUTO 36020G25KT 10SM OVC012 19/15 A2999 RMK AO2 PK WND 36027/1830 SLP145 T01890150
KEWK 251830Z AUTO 35023G27KT 10SM BKN010 BKN028 BKN035 19/16 A2998 RMK AO2 PK WND 36027/1830
KEWK 251756Z AUTO 33019G32KT 10SM BKN026 BKN033 OVC044 22/17 A2996 RMK AO2 PK WND 32032/1753 SLP135 T02170172 10239 20200 53009
KEWK 251656Z AUTO 27012KT 10SM SCT019 BKN026 OVC031 23/18 A2995 RMK AO2 SLP128 T02330178
KEWK 251631Z AUTO 29010KT 10SM BKN015 BKN019 OVC033 24/19 A2995 RMK AO2
KEWK 251556Z AUTO 27007KT 10SM BKN011 BKN018 OVC029 22/19 A2995 RMK AO2 SLP131 T02170194
KEWK 251547Z AUTO 27009G17KT 10SM BKN011 BKN018 OVC033 22/19 A2995 RMK AO2
KEWK 251537Z AUTO 29009KT 10SM SCT011 BKN018 OVC035 22/19 A2995 RMK AO2
KEWK 251456Z AUTO 25008KT 10SM BKN013 21/19 A2994 RMK AO2 PRESRR SLP125 T02110194 53022
KEWK 251356Z AUTO 18012KT 10SM BKN006 20/19 A2988 RMK AO2 CIG 004V009 SLP107 T02000189
KEWK 251256Z AUTO 18011KT 10SM OVC004 19/18 A2988 RMK AO2 SLP108 T01890183
KEWK 251156Z AUTO 17013KT 9SM BKN002 18/18 A2987 RMK AO2 SLP101 P0001 60001 70001 T01830178 10189 20161 58004
KEWK 251147Z AUTO 17013KT 6SM BR OVC002 18/18 A2987 RMK AO2 P0001
KEWK 251133Z AUTO 17011KT 1SM BR OVC002 18/18 A2988 RMK AO2
KEWK 251056Z AUTO 15007KT 1/2SM FG OVC002 17/17 A2988 RMK AO2 SLP105 T01720172
KEWK 251025Z AUTO 14007KT 1/2SM FG BKN002 17/16 A2988 RMK AO2
KEWK 251013Z AUTO 14007KT 3/4SM BR BKN002 16/16 A2988 RMK AO2
KEWK 250956Z AUTO 14006KT 1 3/4SM BR FEW002 16/16 A2988 RMK AO2 SLP105 T01610161
KEWK 250856Z AUTO 16007KT 9SM FEW002 17/17 A2988 RMK AO2 SLP105 T01720172 58001
KEWK 250852Z AUTO 16007KT 8SM SCT002 17/17 A2988 RMK AO2
KEWK 250842Z AUTO 16007KT 3SM BR BKN002 17/17 A2988 RMK AO2
KEWK 250838Z AUTO 16006KT 1 1/4SM BR BKN002 17/17 A2988 RMK AO2
KEWK 250829Z AUTO 14006KT 3/4SM BR BKN002 16/16 A2989 RMK AO2
KEWK 250821Z AUTO 14005KT 1SM BR VV002 17/16 A2989 RMK AO2
KEWK 250818Z AUTO 14004KT 2SM BR FEW001 17/17 A2989 RMK AO2
KEWK 250756Z AUTO 15006KT 8SM CLR 17/17 A2989 RMK AO2 SLP107 T01720172
KEWK 250656Z AUTO 18006KT 10SM CLR 18/18 A2988 RMK AO2 SLP105 T01830178
KEWK 250556Z AUTO 10SM CLR 19/18 A2988 RMK AO2 SLP104 T01890183 10239 20189 55002 $
KEWK 250456Z AUTO 15010KT 10SM CLR 19/18 A2987 RMK AO2 SLP102 T01890183 402670133
KEWK 250356Z AUTO 16007KT 10SM CLR 19/18 A2988 RMK AO2 SLP107 T01940183
KEWK 250256Z AUTO 16006KT 10SM CLR 20/18 A2988 RMK AO2 SLP108 T02000183 53021
KEWK 250156Z AUTO 15008KT 10SM CLR 20/18 A2986 RMK AO2 SLP100 T02000183
KEWK 250056Z AUTO 15007KT 10SM CLR 21/18 A2983 RMK AO2 SLP091 T02110183
KEWK 242356Z AUTO 16009KT 10SM CLR 24/18 A2982 RMK AO2 SLP085 T02390183 10267 20239 55002
KEWK 242256Z AUTO 17011KT 10SM CLR 26/18 A2981 RMK AO2 SLP083 T02560178
KEWK 242156Z AUTO 18012KT 10SM SCT036 27/18 A2982 RMK AO2 SLP083 T02670178
KEWK 242056Z AUTO 18015KT 10SM BKN034 26/18 A2982 RMK AO2 SLP087 T02610178 56025
KEWK 241937Z AUTO 18014G20KT 10SM SCT028 26/18 A2984 RMK AO2
KEWK 241911Z AUTO 19015G20KT 10SM BKN028 25/18 A2985 RMK AO2
KEWK 241856Z AUTO 17011G19KT 10SM SCT028 25/18 A2986 RMK AO2 SLP101 T02500178
KEWK 241756Z AUTO 18016G22KT 10SM BKN026 24/17 A2990 RMK AO2 SLP114 T02390172 10244 20172 58013